Time;durP1;ratioP1;P1;durP2;ratioP2;P2;SDS_P1;SDS_P2;PMS_P1;PMS_P2;Temp;Humidity;BMP_temperature;BMP_pressure;BME280_temperature;BME280_humidity;BME280_pressure;Samples;Min_cycle;Max_cycle;Signal;HPM_P1;HPM_P2
2024/03/09 00:01:29;;;;;;;;;;;;;;;;;;5047081;28;19925;-64
2024/03/09 00:03:56;;;;;;;;;;;;;;;;;;5049530;28;19979;-64
2024/03/09 00:06:21;;;;;;;;;;;;;;;;;;5050875;28;19975;-64
2024/03/09 00:08:48;;;;;;;;;;;;;;;;;;5050971;28;20354;-64
2024/03/09 00:11:14;;;;;;;;;;;;;;;;;;5036370;28;19970;-64
2024/03/09 00:13:40;;;;;;;;;;;;;;;;;;5044723;28;19925;-64
2024/03/09 00:16:06;;;;;;;;;;;;;;;;;;5043736;28;19982;-64
2024/03/09 00:18:32;;;;;;;;;;;;;;;;;;5047798;28;20568;-64
2024/03/09 00:20:58;;;;;;;;;;;;;;;;;;5049537;28;20015;-64
2024/03/09 00:23:27;;;;;;;;;;;;;;;;;;5051496;28;19966;-64
2024/03/09 00:25:53;;;;;;;;;;;;;;;;;;5045672;28;19932;-65
2024/03/09 00:28:21;;;;;;;;;;;;;;;;;;5029481;28;20003;-65
2024/03/09 00:30:46;;;;;;;;;;;;;;;;;;5047143;28;19925;-65
2024/03/09 00:33:12;;;;;;;;;;;;;;;;;;5043517;28;19925;-65
2024/03/09 00:35:40;;;;;;;;;;;;;;;;;;5048214;28;19924;-65
2024/03/09 00:38:06;;;;;;;;;;;;;;;;;;5053235;28;19924;-65
2024/03/09 00:40:32;;;;;;;;;;;;;;;;;;5042545;28;20322;-65
2024/03/09 00:42:59;;;;;;;;;;;;;;;;;;5050619;28;19928;-65
2024/03/09 00:45:25;;;;;;;;;;;;;;;;;;5048259;28;20739;-64
2024/03/09 00:47:51;;;;;;;;;;;;;;;;;;5049687;28;19996;-64
2024/03/09 00:50:17;;;;;;;;;;;;;;;;;;5043843;28;19933;-64
2024/03/09 00:52:43;;;;;;;;;;;;;;;;;;5046197;28;19925;-64
2024/03/09 00:55:15;;;;;;;;;;;;;;;;;;5036274;28;19921;-65
2024/03/09 00:57:50;;;;;;;;;;;;;;;;;;5047001;28;19978;-64
2024/03/09 01:00:16;;;;;;;;;;;;;;;;;;5042106;28;19921;-65
2024/03/09 01:02:43;;;;;;;;;;;;;;;;;;5046048;28;19978;-65
2024/03/09 01:05:09;;;;;;;;;;;;;;;;;;5048700;28;19999;-64
2024/03/09 01:07:37;;;;;;;;;;;;;;;;;;5047380;28;19931;-65
2024/03/09 01:10:03;;;;;;;;;;;;;;;;;;5050158;28;19925;-65
2024/03/09 01:12:29;;;;;;;;;;;;;;;;;;5057748;28;20371;-65
2024/03/09 01:14:55;;;;;;;;;;;;;;;;;;5047546;28;19921;-64
2024/03/09 01:17:21;;;;;;;;;;;;;;;;;;5048719;28;19929;-65
2024/03/09 01:19:47;;;;;;;;;;;;;;;;;;5048056;28;19928;-65
2024/03/09 01:22:13;;;;;;;;;;;;;;;;;;5049855;28;19921;-65
2024/03/09 01:24:39;;;;;;;;;;;;;;;;;;5050556;28;19929;-65
2024/03/09 01:27:05;;;;;;;;;;;;;;;;;;5048451;28;19936;-65
2024/03/09 01:29:32;;;;;;;;;;;;;;;;;;5051780;28;19920;-65
2024/03/09 01:32:01;;;;;;;;;;;;;;;;;;5044265;28;20025;-65
2024/03/09 01:34:27;;;;;;;;;;;;;;;;;;5050395;28;20367;-65
2024/03/09 01:36:54;;;;;;;;;;;;;;;;;;5044761;28;19932;-65
2024/03/09 01:39:19;;;;;;;;;;;;;;;;;;5048348;28;19927;-65
2024/03/09 01:41:45;;;;;;;;;;;;;;;;;;5047092;28;20302;-65
2024/03/09 01:44:12;;;;;;;;;;;;;;;;;;5032816;28;19963;-65
2024/03/09 01:46:38;;;;;;;;;;;;;;;;;;5039534;28;19925;-64
2024/03/09 01:49:04;;;;;;;;;;;;;;;;;;5046224;28;19978;-65
2024/03/09 01:51:29;;;;;;;;;;;;;;;;;;5046342;28;19974;-64
2024/03/09 01:53:55;;;;;;;;;;;;;;;;;;5049444;28;19974;-65
2024/03/09 01:56:22;;;;;;;;;;;;;;;;;;5049830;28;20632;-65
2024/03/09 01:58:48;;;;;;;;;;;;;;;;;;5049560;28;19925;-65
2024/03/09 02:01:24;;;;;;;;;;;;;;;;;;5040883;28;19928;-65
2024/03/09 02:03:52;;;;;;;;;;;;;;;;;;5047448;28;19925;-63
2024/03/09 02:06:18;;;;;;;;;;;;;;;;;;5049483;28;20465;-63
2024/03/09 02:08:43;;;;;;;;;;;;;;;;;;5051618;28;20019;-64
2024/03/09 02:11:10;;;;;;;;;;;;;;;;;;5046026;28;20004;-64
2024/03/09 02:13:36;;;;;;;;;;;;;;;;;;5047211;28;20020;-64
2024/03/09 02:16:02;;;;;;;;;;;;;;;;;;5047727;28;19986;-64
2024/03/09 02:18:29;;;;;;;;;;;;;;;;;;5042334;28;19921;-64
2024/03/09 02:20:56;;;;;;;;;;;;;;;;;;5050111;28;19968;-64
2024/03/09 02:23:23;;;;;;;;;;;;;;;;;;5051796;28;19925;-64
2024/03/09 02:25:49;;;;;;;;;;;;;;;;;;5033911;28;19936;-64
2024/03/09 02:28:15;;;;;;;;;;;;;;;;;;5040828;28;19925;-64
2024/03/09 02:30:41;;;;;;;;;;;;;;;;;;5055594;28;19929;-64
2024/03/09 02:33:08;;;;;;;;;;;;;;;;;;5055751;28;20374;-64
2024/03/09 02:35:34;;;;;;;;;;;;;;;;;;5056682;28;19925;-64
2024/03/09 02:37:59;;;;;;;;;;;;;;;;;;5051990;28;19928;-64
2024/03/09 02:40:25;;;;;;;;;;;;;;;;;;5049304;28;19956;-64
2024/03/09 02:43:04;;;;;;;;;;;;;;;;;;5052630;28;20374;-64
2024/03/09 02:45:30;;;;;;;;;;;;;;;;;;5037739;28;19947;-64
2024/03/09 02:47:56;;;;;;;;;;;;;;;;;;5062221;28;19924;-64
2024/03/09 02:50:26;;;;;;;;;;;;;;;;;;5054552;28;20282;-64
2024/03/09 02:52:52;;;;;;;;;;;;;;;;;;5053079;28;19951;-64
2024/03/09 02:55:18;;;;;;;;;;;;;;;;;;5058105;22;19925;-62
2024/03/09 02:57:44;;;;;;;;;;;;;;;;;;5056516;28;20327;-62
2024/03/09 03:00:12;;;;;;;;;;;;;;;;;;5071412;28;20023;-62
2024/03/09 03:05:23;;;;;;;;;;;;;;;;;;5064225;28;19928;-61
2024/03/09 03:07:49;;;;;;;;;;;;;;;;;;5086290;28;19920;-61
2024/03/09 03:10:15;;;;;;;;;;;;;;;;;;5072112;28;20031;-61
2024/03/09 03:12:41;;;;;;;;;;;;;;;;;;5075209;28;19921;-61
2024/03/09 03:15:10;;;;;;;;;;;;;;;;;;5073233;28;19921;-62
2024/03/09 03:17:36;;;;;;;;;;;;;;;;;;5073672;28;19928;-62
2024/03/09 03:20:04;;;;;;;;;;;;;;;;;;5073378;28;20369;-62
2024/03/09 03:22:30;;;;;;;;;;;;;;;;;;5082454;28;19926;-63
2024/03/09 03:24:56;;;;;;;;;;;;;;;;;;5073260;28;20023;-62
2024/03/09 03:27:21;;;;;;;;;;;;;;;;;;5068995;28;19924;-61
2024/03/09 03:29:51;;;;;;;;;;;;;;;;;;5072234;28;19921;-62
2024/03/09 03:32:17;;;;;;;;;;;;;;;;;;5072257;28;19928;-62
2024/03/09 03:34:43;;;;;;;;;;;;;;;;;;5070677;28;19924;-62
2024/03/09 03:37:09;;;;;;;;;;;;;;;;;;5071267;28;20297;-62
2024/03/09 03:39:35;;;;;;;;;;;;;;;;;;5073129;28;19921;-62
2024/03/09 03:42:01;;;;;;;;;;;;;;;;;;5063073;28;19920;-62
2024/03/09 03:44:30;;;;;;;;;;;;;;;;;;5062958;28;20317;-62
2024/03/09 03:46:55;;;;;;;;;;;;;;;;;;5071212;28;19920;-62
2024/03/09 03:49:22;;;;;;;;;;;;;;;;;;5072467;28;20011;-61
2024/03/09 03:51:48;;;;;;;;;;;;;;;;;;5071899;28;19982;-61
2024/03/09 03:54:15;;;;;;;;;;;;;;;;;;5068256;28;19924;-62
2024/03/09 03:56:42;;;;;;;;;;;;;;;;;;5070518;28;19928;-62
2024/03/09 03:59:09;;;;;;;;;;;;;;;;;;5066834;28;20011;-61
2024/03/09 04:01:35;;;;;;;;;;;;;;;;;;5069799;28;20011;-62
2024/03/09 04:04:01;;;;;;;;;;;;;;;;;;5066894;28;21902;-62
2024/03/09 04:06:27;;;;;;;;;;;;;;;;;;5071602;28;19920;-62
2024/03/09 04:08:53;;;;;;;;;;;;;;;;;;5074255;28;19931;-62
2024/03/09 04:11:19;;;;;;;;;;;;;;;;;;5067989;28;19920;-62
2024/03/09 04:13:44;;;;;;;;;;;;;;;;;;5062238;28;20354;-62
2024/03/09 04:16:10;;;;;;;;;;;;;;;;;;5068015;28;20039;-62
2024/03/09 04:18:36;;;;;;;;;;;;;;;;;;5072905;28;20003;-62
2024/03/09 04:21:02;;;;;;;;;;;;;;;;;;5073000;28;20007;-62
2024/03/09 04:23:28;;;;;;;;;;;;;;;;;;5071512;28;21703;-62
2024/03/09 04:25:55;;;;;;;;;;;;;;;;;;5064071;28;19925;-62
2024/03/09 04:28:22;;;;;;;;;;;;;;;;;;5072251;28;19931;-61
2024/03/09 04:30:48;;;;;;;;;;;;;;;;;;5069625;28;19931;-61
2024/03/09 04:33:15;;;;;;;;;;;;;;;;;;5066781;28;20015;-62
2024/03/09 04:35:41;;;;;;;;;;;;;;;;;;5066955;28;19950;-62
2024/03/09 04:38:07;;;;;;;;;;;;;;;;;;5072355;28;19928;-61
2024/03/09 04:40:37;;;;;;;;;;;;;;;;;;5071417;28;19924;-61
2024/03/09 04:43:03;;;;;;;;;;;;;;;;;;5070397;28;20348;-61
2024/03/09 04:45:30;;;;;;;;;;;;;;;;;;5067482;28;19925;-61
2024/03/09 04:47:58;;;;;;;;;;;;;;;;;;5060765;28;19925;-61
2024/03/09 04:50:24;;;;;;;;;;;;;;;;;;5072125;28;20395;-61
2024/03/09 04:52:50;;;;;;;;;;;;;;;;;;5070310;28;20003;-61
2024/03/09 04:55:16;;;;;;;;;;;;;;;;;;5071423;28;20495;-61
2024/03/09 04:57:43;;;;;;;;;;;;;;;;;;5070368;28;19921;-61
2024/03/09 05:00:14;;;;;;;;;;;;;;;;;;5072175;28;19921;-62
2024/03/09 05:02:40;;;;;;;;;;;;;;;;;;5070041;28;19927;-62
2024/03/09 05:05:06;;;;;;;;;;;;;;;;;;5070971;28;19924;-62
2024/03/09 05:07:32;;;;;;;;;;;;;;;;;;5064699;28;21233;-62
2024/03/09 05:09:58;;;;;;;;;;;;;;;;;;5068336;28;20003;-62
2024/03/09 05:12:24;;;;;;;;;;;;;;;;;;5063081;28;19985;-62
2024/03/09 05:14:50;;;;;;;;;;;;;;;;;;5072695;28;20409;-62
2024/03/09 05:17:16;;;;;;;;;;;;;;;;;;5084311;28;19927;-62
2024/03/09 05:19:43;;;;;;;;;;;;;;;;;;5071314;28;19920;-62
2024/03/09 05:22:09;;;;;;;;;;;;;;;;;;5070871;28;19920;-62
2024/03/09 05:24:35;;;;;;;;;;;;;;;;;;5069453;28;19930;-62
2024/03/09 05:27:01;;;;;;;;;;;;;;;;;;5070050;28;19995;-62
2024/03/09 05:29:27;;;;;;;;;;;;;;;;;;5068349;28;19941;-62
2024/03/09 05:31:53;;;;;;;;;;;;;;;;;;5067716;28;19929;-62
2024/03/09 05:34:19;;;;;;;;;;;;;;;;;;5064537;28;19999;-62
2024/03/09 05:36:45;;;;;;;;;;;;;;;;;;5070396;28;20007;-62
2024/03/09 05:39:13;;;;;;;;;;;;;;;;;;5072794;28;19920;-62
2024/03/09 05:41:39;;;;;;;;;;;;;;;;;;5069941;28;19970;-62
2024/03/09 05:44:05;;;;;;;;;;;;;;;;;;5072551;28;19928;-62
2024/03/09 05:46:31;;;;;;;;;;;;;;;;;;5068715;28;19921;-62
2024/03/09 05:48:57;;;;;;;;;;;;;;;;;;5071314;28;19921;-62
2024/03/09 05:51:23;;;;;;;;;;;;;;;;;;5068661;28;19928;-62
2024/03/09 05:53:49;;;;;;;;;;;;;;;;;;5066878;28;20373;-62
2024/03/09 05:56:15;;;;;;;;;;;;;;;;;;5070204;28;20430;-62
2024/03/09 05:58:41;;;;;;;;;;;;;;;;;;5070065;28;19973;-62
2024/03/09 06:01:07;;;;;;;;;;;;;;;;;;5062402;28;19928;-62
2024/03/09 06:03:33;;;;;;;;;;;;;;;;;;5070689;28;19924;-62
2024/03/09 06:05:59;;;;;;;;;;;;;;;;;;5067018;28;19993;-62
2024/03/09 06:08:25;;;;;;;;;;;;;;;;;;5064454;28;19924;-62
2024/03/09 06:10:51;;;;;;;;;;;;;;;;;;5069957;28;20631;-62
2024/03/09 06:13:17;;;;;;;;;;;;;;;;;;5069128;28;19928;-62
2024/03/09 06:15:43;;;;;;;;;;;;;;;;;;5067767;28;20438;-62
2024/03/09 06:18:09;;;;;;;;;;;;;;;;;;5071521;28;19970;-62
2024/03/09 06:20:37;;;;;;;;;;;;;;;;;;5067084;28;19921;-62
2024/03/09 06:23:03;;;;;;;;;;;;;;;;;;5065018;28;20015;-62
2024/03/09 06:25:29;;;;;;;;;;;;;;;;;;5064168;28;20023;-62
2024/03/09 06:27:55;;;;;;;;;;;;;;;;;;5072315;28;20678;-62
2024/03/09 06:30:22;;;;;;;;;;;;;;;;;;5068407;28;19968;-61
2024/03/09 06:32:49;;;;;;;;;;;;;;;;;;5068502;28;19967;-62
2024/03/09 06:35:19;;;;;;;;;;;;;;;;;;5068262;28;20004;-62
2024/03/09 06:37:45;;;;;;;;;;;;;;;;;;5066579;28;19928;-62
2024/03/09 06:40:10;;;;;;;;;;;;;;;;;;5071916;28;19920;-62
2024/03/09 06:42:36;;;;;;;;;;;;;;;;;;5074533;28;20370;-62
2024/03/09 06:45:03;;;;;;;;;;;;;;;;;;5089928;28;19931;-62
2024/03/09 06:47:31;;;;;;;;;;;;;;;;;;5073122;28;20325;-62
2024/03/09 06:49:56;;;;;;;;;;;;;;;;;;5074024;28;20289;-62
2024/03/09 06:52:22;;;;;;;;;;;;;;;;;;5075777;28;19924;-62
2024/03/09 06:54:49;;;;;;;;;;;;;;;;;;5071507;28;19929;-62
2024/03/09 06:57:15;;;;;;;;;;;;;;;;;;5049766;28;20350;-62
2024/03/09 06:59:41;;;;;;;;;;;;;;;;;;5067167;28;19920;-62
2024/03/09 07:02:07;;;;;;;;;;;;;;;;;;5073736;28;19927;-62
2024/03/09 07:04:33;;;;;;;;;;;;;;;;;;5075137;28;20022;-62
2024/03/09 07:06:59;;;;;;;;;;;;;;;;;;5074104;28;20389;-63
2024/03/09 07:09:25;;;;;;;;;;;;;;;;;;5065440;28;19925;-62
2024/03/09 07:11:51;;;;;;;;;;;;;;;;;;5074907;28;19920;-62
2024/03/09 07:14:17;;;;;;;;;;;;;;;;;;5073514;28;19920;-63
2024/03/09 07:16:43;;;;;;;;;;;;;;;;;;5073117;28;20527;-62
2024/03/09 07:19:09;;;;;;;;;;;;;;;;;;5075010;28;19922;-62
2024/03/09 07:21:35;;;;;;;;;;;;;;;;;;5066984;28;19928;-63
2024/03/09 07:24:01;;;;;;;;;;;;;;;;;;5067104;28;19967;-63
2024/03/09 07:26:27;;;;;;;;;;;;;;;;;;5066977;28;20279;-62
2024/03/09 07:28:54;;;;;;;;;;;;;;;;;;5074434;28;20015;-62
2024/03/09 07:31:22;;;;;;;;;;;;;;;;;;5072572;28;19932;-62
2024/03/09 07:33:50;;;;;;;;;;;;;;;;;;5073178;28;20366;-62
2024/03/09 07:36:20;;;;;;;;;;;;;;;;;;5073916;28;21575;-62
2024/03/09 07:38:48;;;;;;;;;;;;;;;;;;5072299;28;20372;-62
2024/03/09 07:41:16;;;;;;;;;;;;;;;;;;5072903;28;20282;-62
2024/03/09 07:43:42;;;;;;;;;;;;;;;;;;5074022;28;20354;-63
2024/03/09 07:46:07;;;;;;;;;;;;;;;;;;5073218;28;19924;-63
2024/03/09 07:48:34;;;;;;;;;;;;;;;;;;5073866;28;19931;-62
2024/03/09 07:51:00;;;;;;;;;;;;;;;;;;5071838;28;19977;-62
2024/03/09 07:53:25;;;;;;;;;;;;;;;;;;5071903;28;19924;-62
2024/03/09 07:55:54;;;;;;;;;;;;;;;;;;5073663;28;20449;-63
2024/03/09 07:58:21;;;;;;;;;;;;;;;;;;5073977;28;19928;-62
2024/03/09 08:00:48;;;;;;;;;;;;;;;;;;5071225;28;19921;-62
2024/03/09 08:03:14;;;;;;;;;;;;;;;;;;5073244;28;20031;-62
2024/03/09 08:05:41;;;;;;;;;;;;;;;;;;5073465;28;20347;-62
2024/03/09 08:08:10;;;;;;;;;;;;;;;;;;5071935;28;19944;-62
2024/03/09 08:10:39;;;;;;;;;;;;;;;;;;5070884;28;19924;-62
2024/03/09 08:13:05;;;;;;;;;;;;;;;;;;5073630;28;19957;-63
2024/03/09 08:15:32;;;;;;;;;;;;;;;;;;5073797;28;20265;-63
2024/03/09 08:17:58;;;;;;;;;;;;;;;;;;5073872;28;19936;-62
2024/03/09 08:20:24;;;;;;;;;;;;;;;;;;5072326;28;19965;-62
2024/03/09 08:22:50;;;;;;;;;;;;;;;;;;5071853;28;20749;-62
2024/03/09 08:25:16;;;;;;;;;;;;;;;;;;5065573;28;19928;-62
2024/03/09 08:27:42;;;;;;;;;;;;;;;;;;5070692;28;19928;-62
2024/03/09 08:30:12;;;;;;;;;;;;;;;;;;5070797;28;19951;-62
2024/03/09 08:32:38;;;;;;;;;;;;;;;;;;5065603;28;19928;-62
2024/03/09 08:35:08;;;;;;;;;;;;;;;;;;5070966;28;19927;-62
2024/03/09 08:37:36;;;;;;;;;;;;;;;;;;5069225;28;19964;-62
2024/03/09 08:40:05;;;;;;;;;;;;;;;;;;5066560;28;20011;-62
2024/03/09 08:42:31;;;;;;;;;;;;;;;;;;5067722;28;21545;-62
2024/03/09 08:44:58;;;;;;;;;;;;;;;;;;5063394;28;19931;-62
2024/03/09 08:47:25;;;;;;;;;;;;;;;;;;5067722;28;19920;-62
2024/03/09 08:49:50;;;;;;;;;;;;;;;;;;5066867;28;19926;-63
2024/03/09 08:52:16;;;;;;;;;;;;;;;;;;5066443;28;19924;-62
2024/03/09 08:54:44;;;;;;;;;;;;;;;;;;5065106;28;19920;-62
2024/03/09 08:57:11;;;;;;;;;;;;;;;;;;5069181;28;20406;-62
2024/03/09 08:59:38;;;;;;;;;;;;;;;;;;5070885;28;19920;-62
2024/03/09 09:02:06;;;;;;;;;;;;;;;;;;5069029;28;19932;-62
2024/03/09 09:04:34;;;;;;;;;;;;;;;;;;5058066;28;19940;-62
2024/03/09 09:07:00;;;;;;;;;;;;;;;;;;5067106;28;20286;-62
2024/03/09 09:09:26;;;;;;;;;;;;;;;;;;5071239;28;19921;-62
2024/03/09 09:11:52;;;;;;;;;;;;;;;;;;5064804;28;20429;-62
2024/03/09 09:14:19;;;;;;;;;;;;;;;;;;5066592;28;19925;-62
2024/03/09 09:16:45;;;;;;;;;;;;;;;;;;5068613;28;19920;-62
2024/03/09 09:19:10;;;;;;;;;;;;;;;;;;5070689;28;19920;-62
2024/03/09 09:21:36;;;;;;;;;;;;;;;;;;5070693;28;20267;-62
2024/03/09 09:24:02;;;;;;;;;;;;;;;;;;5067410;28;19928;-63
2024/03/09 09:26:28;;;;;;;;;;;;;;;;;;5067908;28;19927;-62
2024/03/09 09:28:54;;;;;;;;;;;;;;;;;;5069665;28;20373;-63
2024/03/09 09:31:20;;;;;;;;;;;;;;;;;;5066959;28;19931;-62
2024/03/09 09:33:46;;;;;;;;;;;;;;;;;;5071463;28;19929;-62
2024/03/09 09:36:12;;;;;;;;;;;;;;;;;;5069394;28;19921;-62
2024/03/09 09:38:39;;;;;;;;;;;;;;;;;;5061829;28;19920;-62
2024/03/09 09:41:05;;;;;;;;;;;;;;;;;;5065926;28;19928;-62
2024/03/09 09:43:32;;;;;;;;;;;;;;;;;;5070138;28;19921;-62
2024/03/09 09:45:58;;;;;;;;;;;;;;;;;;5066406;28;19932;-62
2024/03/09 09:48:24;;;;;;;;;;;;;;;;;;5070173;28;19920;-62
2024/03/09 09:50:50;;;;;;;;;;;;;;;;;;5067702;28;20011;-62
2024/03/09 09:53:18;;;;;;;;;;;;;;;;;;5067714;28;19929;-62
2024/03/09 09:55:46;;;;;;;;;;;;;;;;;;5067589;28;19986;-62
2024/03/09 09:58:12;;;;;;;;;;;;;;;;;;5068314;28;19925;-62
2024/03/09 10:00:38;;;;;;;;;;;;;;;;;;5066922;28;20769;-62
2024/03/09 10:03:04;;;;;;;;;;;;;;;;;;5068684;28;19920;-62
2024/03/09 10:05:31;;;;;;;;;;;;;;;;;;5071658;28;19970;-62
2024/03/09 10:07:58;;;;;;;;;;;;;;;;;;5070217;28;20273;-62
2024/03/09 10:10:24;;;;;;;;;;;;;;;;;;5069822;22;19935;-63
2024/03/09 10:12:49;;;;;;;;;;;;;;;;;;5044074;28;19924;-64
2024/03/09 10:15:16;;;;;;;;;;;;;;;;;;5045015;28;20353;-63
2024/03/09 10:17:42;;;;;;;;;;;;;;;;;;5048666;28;19925;-63
2024/03/09 10:20:12;;;;;;;;;;;;;;;;;;5053660;28;19932;-63
2024/03/09 10:22:38;;;;;;;;;;;;;;;;;;5054581;28;19921;-63
2024/03/09 10:25:05;;;;;;;;;;;;;;;;;;5051760;28;20171;-64
2024/03/09 10:27:31;;;;;;;;;;;;;;;;;;5043358;28;19932;-63
2024/03/09 10:29:57;;;;;;;;;;;;;;;;;;5050617;28;19924;-63
2024/03/09 10:32:23;;;;;;;;;;;;;;;;;;5051762;28;19925;-64
2024/03/09 10:34:49;;;;;;;;;;;;;;;;;;5052252;28;19921;-63
2024/03/09 10:37:17;;;;;;;;;;;;;;;;;;5051879;28;19932;-62
2024/03/09 10:39:43;;;;;;;;;;;;;;;;;;5051347;28;19975;-63
2024/03/09 10:42:09;;;;;;;;;;;;;;;;;;5051404;28;20377;-62
2024/03/09 10:44:35;;;;;;;;;;;;;;;;;;5053463;28;19960;-63
2024/03/09 10:47:02;;;;;;;;;;;;;;;;;;5051514;28;19966;-62
2024/03/09 10:49:30;;;;;;;;;;;;;;;;;;5052112;28;20294;-62
2024/03/09 10:51:56;;;;;;;;;;;;;;;;;;5050257;28;20011;-62
2024/03/09 10:54:21;;;;;;;;;;;;;;;;;;5044700;28;20000;-62
2024/03/09 10:56:53;;;;;;;;;;;;;;;;;;5039725;28;20380;-62
2024/03/09 10:59:20;;;;;;;;;;;;;;;;;;5044601;28;19929;-62
2024/03/09 11:01:48;;;;;;;;;;;;;;;;;;5048312;28;19947;-63
2024/03/09 11:04:15;;;;;;;;;;;;;;;;;;5049695;28;19928;-62
2024/03/09 11:06:40;;;;;;;;;;;;;;;;;;5051933;28;19983;-62
2024/03/09 11:09:11;;;;;;;;;;;;;;;;;;5048780;28;19933;-62
2024/03/09 11:11:37;;;;;;;;;;;;;;;;;;5048003;28;19967;-62
2024/03/09 11:14:03;;;;;;;;;;;;;;;;;;5045202;28;19964;-63
2024/03/09 11:16:29;;;;;;;;;;;;;;;;;;5045352;28;20039;-63
2024/03/09 11:18:55;;;;;;;;;;;;;;;;;;5050020;28;19987;-63
2024/03/09 11:21:21;;;;;;;;;;;;;;;;;;5042136;28;19948;-63
2024/03/09 11:23:47;;;;;;;;;;;;;;;;;;5051258;28;19925;-63
2024/03/09 11:26:13;;;;;;;;;;;;;;;;;;5048719;28;19928;-63
2024/03/09 11:28:39;;;;;;;;;;;;;;;;;;5037953;28;19929;-63
2024/03/09 11:31:14;;;;;;;;;;;;;;;;;;5053156;28;19921;-63
2024/03/09 11:33:40;;;;;;;;;;;;;;;;;;5053469;28;20418;-63
2024/03/09 11:36:10;;;;;;;;;;;;;;;;;;5053911;28;20054;-63
2024/03/09 11:38:36;;;;;;;;;;;;;;;;;;5052459;28;19992;-63
2024/03/09 11:41:04;;;;;;;;;;;;;;;;;;5054043;28;19921;-63
2024/03/09 11:43:30;;;;;;;;;;;;;;;;;;5045953;28;19936;-63
2024/03/09 11:45:56;;;;;;;;;;;;;;;;;;5047524;28;20423;-63
2024/03/09 11:48:23;;;;;;;;;;;;;;;;;;5051532;28;19925;-63
2024/03/09 11:50:49;;;;;;;;;;;;;;;;;;5051409;28;20074;-63
2024/03/09 11:53:15;;;;;;;;;;;;;;;;;;5042659;28;20015;-63
2024/03/09 11:55:41;;;;;;;;;;;;;;;;;;5050825;28;19924;-63
2024/03/09 11:58:07;;;;;;;;;;;;;;;;;;5053723;28;19976;-63
2024/03/09 12:00:34;;;;;;;;;;;;;;;;;;5047136;28;20011;-63
2024/03/09 12:03:00;;;;;;;;;;;;;;;;;;5050284;28;19932;-63
2024/03/09 12:05:26;;;;;;;;;;;;;;;;;;5049054;28;19920;-63
2024/03/09 12:07:53;;;;;;;;;;;;;;;;;;5050974;28;20030;-63
2024/03/09 12:10:19;;;;;;;;;;;;;;;;;;5037006;28;20549;-63
2024/03/09 12:12:45;;;;;;;;;;;;;;;;;;5044737;28;19972;-63
2024/03/09 12:15:11;;;;;;;;;;;;;;;;;;5048870;28;19928;-63
2024/03/09 12:17:37;;;;;;;;;;;;;;;;;;5045996;28;19927;-63
2024/03/09 12:20:05;;;;;;;;;;;;;;;;;;5050403;28;19921;-63
2024/03/09 12:22:31;;;;;;;;;;;;;;;;;;5054564;28;19924;-63
2024/03/09 12:24:57;;;;;;;;;;;;;;;;;;5048141;28;19920;-63
2024/03/09 12:27:24;;;;;;;;;;;;;;;;;;5048914;28;19929;-63
2024/03/09 12:29:50;;;;;;;;;;;;;;;;;;5060054;28;20053;-63
2024/03/09 12:32:19;;;;;;;;;;;;;;;;;;5063731;28;20002;-63
2024/03/09 12:34:45;;;;;;;;;;;;;;;;;;5055820;28;19921;-64
2024/03/09 12:37:11;;;;;;;;;;;;;;;;;;5055187;28;20623;-64
2024/03/09 12:39:38;;;;;;;;;;;;;;;;;;5059076;28;19921;-63
2024/03/09 12:42:04;;;;;;;;;;;;;;;;;;5056012;28;19932;-64
2024/03/09 12:44:29;;;;;;;;;;;;;;;;;;5050697;28;19921;-64
2024/03/09 12:46:55;;;;;;;;;;;;;;;;;;5054883;28;19924;-63
2024/03/09 12:49:21;;;;;;;;;;;;;;;;;;5059698;28;20362;-63
2024/03/09 12:51:48;;;;;;;;;;;;;;;;;;5056481;28;19973;-63
2024/03/09 12:54:14;;;;;;;;;;;;;;;;;;5052026;28;19975;-63
2024/03/09 12:56:40;;;;;;;;;;;;;;;;;;5051569;28;20391;-63
2024/03/09 12:59:09;;;;;;;;;;;;;;;;;;5051375;28;19928;-63
2024/03/09 13:01:36;;;;;;;;;;;;;;;;;;5052663;28;19932;-64
2024/03/09 13:04:07;;;;;;;;;;;;;;;;;;5052466;28;19964;-63
2024/03/09 13:06:33;;;;;;;;;;;;;;;;;;5052465;28;20271;-64
2024/03/09 13:08:59;;;;;;;;;;;;;;;;;;5052551;28;19928;-63
2024/03/09 13:11:27;;;;;;;;;;;;;;;;;;5051279;28;19920;-64
2024/03/09 13:13:52;;;;;;;;;;;;;;;;;;5048295;28;19971;-63
2024/03/09 13:16:18;;;;;;;;;;;;;;;;;;5051095;28;19967;-63
2024/03/09 13:18:44;;;;;;;;;;;;;;;;;;5052475;28;19925;-63
2024/03/09 13:21:10;;;;;;;;;;;;;;;;;;5052084;28;19931;-64
2024/03/09 13:23:36;;;;;;;;;;;;;;;;;;5040294;28;19944;-63
2024/03/09 13:26:02;;;;;;;;;;;;;;;;;;5051812;28;19920;-63
2024/03/09 13:28:31;;;;;;;;;;;;;;;;;;5051038;28;20505;-63
2024/03/09 13:31:03;;;;;;;;;;;;;;;;;;5056311;28;20352;-63
2024/03/09 13:33:33;;;;;;;;;;;;;;;;;;5051962;28;19967;-62
2024/03/09 13:35:59;;;;;;;;;;;;;;;;;;5051855;28;19944;-62
2024/03/09 13:38:26;;;;;;;;;;;;;;;;;;5047900;28;19925;-63
2024/03/09 13:40:52;;;;;;;;;;;;;;;;;;5049091;28;19952;-63
2024/03/09 13:43:18;;;;;;;;;;;;;;;;;;5043316;28;19967;-62
2024/03/09 13:45:43;;;;;;;;;;;;;;;;;;5050853;28;20027;-62
2024/03/09 13:48:11;;;;;;;;;;;;;;;;;;5049247;28;20590;-72
2024/03/09 13:50:36;;;;;;;;;;;;;;;;;;5049763;28;19952;-62
2024/03/09 13:53:05;;;;;;;;;;;;;;;;;;5050976;28;19960;-62
2024/03/09 13:55:31;;;;;;;;;;;;;;;;;;5043090;28;20698;-63
2024/03/09 13:57:58;;;;;;;;;;;;;;;;;;5046174;28;20366;-63
2024/03/09 14:00:28;;;;;;;;;;;;;;;;;;5044735;28;19928;-63
2024/03/09 14:02:56;;;;;;;;;;;;;;;;;;5049466;28;19924;-63
2024/03/09 14:05:24;;;;;;;;;;;;;;;;;;5038860;28;20386;-64
2024/03/09 14:07:56;;;;;;;;;;;;;;;;;;5038080;28;20368;-64
2024/03/09 14:10:22;;;;;;;;;;;;;;;;;;5044934;28;20380;-64
2024/03/09 14:12:48;;;;;;;;;;;;;;;;;;5044876;28;20059;-64
2024/03/09 14:15:23;;;;;;;;;;;;;;;;;;5045931;28;19925;-64
2024/03/09 14:17:48;;;;;;;;;;;;;;;;;;5047174;28;19925;-64
2024/03/09 14:20:22;;;;;;;;;;;;;;;;;;5051070;28;19925;-64
2024/03/09 14:22:49;;;;;;;;;;;;;;;;;;5050887;28;20000;-64
2024/03/09 14:25:15;;;;;;;;;;;;;;;;;;5047848;28;19921;-64
2024/03/09 14:27:41;;;;;;;;;;;;;;;;;;5048319;28;19929;-64
2024/03/09 14:30:09;;;;;;;;;;;;;;;;;;5050382;28;19921;-64
2024/03/09 14:32:39;;;;;;;;;;;;;;;;;;5050704;28;19924;-63
2024/03/09 14:35:13;;;;;;;;;;;;;;;;;;5050714;28;19924;-63
2024/03/09 14:37:43;;;;;;;;;;;;;;;;;;5050785;28;19924;-63
2024/03/09 14:40:11;;;;;;;;;;;;;;;;;;5048556;28;20377;-64
2024/03/09 14:42:37;;;;;;;;;;;;;;;;;;5043924;28;19967;-63
2024/03/09 14:45:03;;;;;;;;;;;;;;;;;;5041917;28;20359;-63
2024/03/09 14:47:29;;;;;;;;;;;;;;;;;;5050906;28;19929;-63
2024/03/09 14:49:55;;;;;;;;;;;;;;;;;;5040093;28;19932;-65
2024/03/09 14:52:21;;;;;;;;;;;;;;;;;;5037977;28;20358;-63
2024/03/09 14:54:48;;;;;;;;;;;;;;;;;;5046829;28;20267;-63
2024/03/09 14:57:17;;;;;;;;;;;;;;;;;;5051428;28;19928;-63
2024/03/09 14:59:43;;;;;;;;;;;;;;;;;;5040933;28;20542;-63
2024/03/09 15:02:09;;;;;;;;;;;;;;;;;;5048416;28;19925;-63
2024/03/09 15:04:35;;;;;;;;;;;;;;;;;;5051514;28;19931;-63
2024/03/09 15:07:01;;;;;;;;;;;;;;;;;;5052633;28;19956;-63
2024/03/09 15:09:27;;;;;;;;;;;;;;;;;;5052998;28;19963;-63
2024/03/09 15:11:56;;;;;;;;;;;;;;;;;;5048410;28;20366;-63
2024/03/09 15:14:22;;;;;;;;;;;;;;;;;;5053183;28;20492;-63
2024/03/09 15:16:51;;;;;;;;;;;;;;;;;;5047476;28;19920;-63
2024/03/09 15:19:17;;;;;;;;;;;;;;;;;;5049107;28;19921;-63
2024/03/09 15:21:43;;;;;;;;;;;;;;;;;;5051110;28;19925;-63
2024/03/09 15:24:11;;;;;;;;;;;;;;;;;;5051442;28;20398;-63
2024/03/09 15:26:40;;;;;;;;;;;;;;;;;;5051054;28;19933;-63
2024/03/09 15:29:05;;;;;;;;;;;;;;;;;;5050299;28;19959;-63
2024/03/09 15:31:31;;;;;;;;;;;;;;;;;;5024693;28;19959;-63
2024/03/09 15:33:57;;;;;;;;;;;;;;;;;;5052035;28;19964;-63
2024/03/09 15:36:23;;;;;;;;;;;;;;;;;;5049443;28;20378;-65
2024/03/09 15:38:51;;;;;;;;;;;;;;;;;;5045013;28;19927;-63
2024/03/09 15:41:17;;;;;;;;;;;;;;;;;;5045396;28;20350;-63
2024/03/09 15:43:43;;;;;;;;;;;;;;;;;;5049366;28;19928;-63
2024/03/09 15:46:12;;;;;;;;;;;;;;;;;;5048079;28;19964;-63
2024/03/09 15:48:38;;;;;;;;;;;;;;;;;;5041454;28;20020;-63
2024/03/09 15:51:10;;;;;;;;;;;;;;;;;;5033392;28;19931;-63
2024/03/09 15:53:37;;;;;;;;;;;;;;;;;;5037059;28;19921;-63
2024/03/09 15:56:03;;;;;;;;;;;;;;;;;;5050271;28;19924;-64
2024/03/09 15:58:29;;;;;;;;;;;;;;;;;;5052348;28;19921;-63
2024/03/09 16:00:55;;;;;;;;;;;;;;;;;;5048451;28;20051;-63
2024/03/09 16:03:22;;;;;;;;;;;;;;;;;;5052211;28;19967;-63
2024/03/09 16:05:50;;;;;;;;;;;;;;;;;;5053178;28;19970;-63
2024/03/09 16:08:16;;;;;;;;;;;;;;;;;;5050183;28;19931;-63
2024/03/09 16:10:42;;;;;;;;;;;;;;;;;;5044857;28;19925;-63
2024/03/09 16:13:12;;;;;;;;;;;;;;;;;;5049833;28;19935;-63
2024/03/09 16:15:40;;;;;;;;;;;;;;;;;;5051756;28;19971;-63
2024/03/09 16:18:07;;;;;;;;;;;;;;;;;;5048315;28;19924;-63
2024/03/09 16:20:33;;;;;;;;;;;;;;;;;;5052305;28;19924;-63
2024/03/09 16:22:59;;;;;;;;;;;;;;;;;;5038485;28;19927;-63
2024/03/09 16:25:25;;;;;;;;;;;;;;;;;;5052260;28;20436;-63
2024/03/09 16:27:51;;;;;;;;;;;;;;;;;;5049263;28;19925;-63
2024/03/09 16:30:28;;;;;;;;;;;;;;;;;;5049077;28;20279;-63
2024/03/09 16:32:54;;;;;;;;;;;;;;;;;;5046337;28;19978;-63
2024/03/09 16:35:20;;;;;;;;;;;;;;;;;;5052640;28;19999;-63
2024/03/09 16:37:46;;;;;;;;;;;;;;;;;;5028382;28;19921;-63
2024/03/09 16:40:14;;;;;;;;;;;;;;;;;;5050713;28;19928;-63
2024/03/09 16:42:40;;;;;;;;;;;;;;;;;;5048334;28;19924;-63
2024/03/09 16:45:09;;;;;;;;;;;;;;;;;;5046904;28;20450;-63